Time;durP1;ratioP1;P1;durP2;ratioP2;P2;SDS_P1;SDS_P2;PMS_P1;PMS_P2;Temp;Humidity;BMP_temperature;BMP_pressure;BME280_temperature;BME280_humidity;BME280_pressure;Samples;Min_cycle;Max_cycle;Signal;HPM_P1;HPM_P2
2024/04/07 00:01:12;;;;;;;2.55;2.35;;;;;;;;;;6165391;28;20137;-88
2024/04/07 00:04:13;;;;;;;3.20;2.05;;;;;;;;;;6153848;28;20044;-87
2024/04/07 00:07:14;;;;;;;4.45;1.85;;;;;;;;;;6168588;28;20125;-86
2024/04/07 00:10:14;;;;;;;5.00;2.38;;;;;;;;;;6160598;28;20054;-88
2024/04/07 00:13:15;;;;;;;4.22;2.30;;;;;;;;;;6167102;28;20078;-87
2024/04/07 00:16:16;;;;;;;6.63;2.38;;;;;;;;;;6171483;28;20088;-87
2024/04/07 00:19:17;;;;;;;4.07;2.38;;;;;;;;;;6170354;28;20082;-87
2024/04/07 00:22:18;;;;;;;3.60;2.00;;;;;;;;;;6180717;28;20129;-87
2024/04/07 00:25:19;;;;;;;3.55;2.33;;;;;;;;;;6174446;28;20034;-87
2024/04/07 00:28:19;;;;;;;4.03;2.17;;;;;;;;;;6197202;28;20053;-86
2024/04/07 00:31:20;;;;;;;3.78;2.17;;;;;;;;;;6173801;28;20547;-87
2024/04/07 00:34:21;;;;;;;3.38;2.08;;;;;;;;;;6167453;28;20370;-87
2024/04/07 00:37:25;;;;;;;2.42;1.98;;;;;;;;;;6156567;28;20061;-87
2024/04/07 00:40:26;;;;;;;3.50;2.20;;;;;;;;;;6175074;28;20054;-88
2024/04/07 00:43:28;;;;;;;2.70;2.38;;;;;;;;;;6156388;28;20472;-86
2024/04/07 00:46:29;;;;;;;3.28;2.17;;;;;;;;;;6157113;28;20038;-88
2024/04/07 00:49:31;;;;;;;3.58;2.70;;;;;;;;;;6169009;28;20408;-86
2024/04/07 00:52:32;;;;;;;3.73;2.40;;;;;;;;;;6169622;28;20121;-87
2024/04/07 00:55:33;;;;;;;4.53;2.47;;;;;;;;;;6150134;28;20049;-87
2024/04/07 00:58:34;;;;;;;3.78;2.38;;;;;;;;;;6164314;28;20349;-87
2024/04/07 01:01:35;;;;;;;4.95;2.28;;;;;;;;;;6162185;28;20042;-87
2024/04/07 01:04:35;;;;;;;4.18;2.70;;;;;;;;;;6167792;28;20059;-87
2024/04/07 01:07:36;;;;;;;3.15;2.25;;;;;;;;;;6155006;28;20085;-88
2024/04/07 01:10:38;;;;;;;5.07;2.60;;;;;;;;;;6162882;28;20034;-88
2024/04/07 01:13:39;;;;;;;4.15;2.40;;;;;;;;;;6146767;28;20100;-88
2024/04/07 01:16:39;;;;;;;4.65;2.40;;;;;;;;;;6151735;28;20039;-87
2024/04/07 01:19:40;;;;;;;2.72;2.22;;;;;;;;;;6186033;28;20478;-88
2024/04/07 01:22:42;;;;;;;2.38;2.00;;;;;;;;;;6139724;28;20100;-87
2024/04/07 01:25:43;;;;;;;3.78;2.00;;;;;;;;;;6148188;28;20526;-87
2024/04/07 01:28:44;;;;;;;2.78;1.77;;;;;;;;;;6174388;28;20045;-88
2024/04/07 01:31:45;;;;;;;3.17;1.83;;;;;;;;;;6154292;28;20406;-89
2024/04/07 01:34:45;;;;;;;3.95;1.67;;;;;;;;;;6173854;28;20263;-88
2024/04/07 01:37:46;;;;;;;3.65;2.10;;;;;;;;;;6178573;28;20053;-87
2024/04/07 01:40:47;;;;;;;3.45;1.98;;;;;;;;;;6145557;28;20042;-87
2024/04/07 01:43:48;;;;;;;5.28;1.85;;;;;;;;;;6183986;28;20065;-87
2024/04/07 01:46:49;;;;;;;3.13;1.88;;;;;;;;;;6175170;28;20117;-87
2024/04/07 01:49:50;;;;;;;2.42;1.85;;;;;;;;;;6175829;28;20043;-88
2024/04/07 01:52:52;;;;;;;3.47;1.90;;;;;;;;;;6174996;28;20089;-88
2024/04/07 01:55:53;;;;;;;3.27;1.70;;;;;;;;;;6200791;28;20040;-86
2024/04/07 01:58:54;;;;;;;6.35;1.90;;;;;;;;;;6218052;28;20022;-88
2024/04/07 02:01:54;;;;;;;2.38;1.42;;;;;;;;;;6170952;28;20065;-87
2024/04/07 02:04:55;;;;;;;3.65;1.90;;;;;;;;;;6171135;28;20141;-87
2024/04/07 02:07:56;;;;;;;2.40;1.75;;;;;;;;;;6163885;28;20052;-87
2024/04/07 02:10:56;;;;;;;2.85;1.80;;;;;;;;;;6183791;28;20085;-88
2024/04/07 02:13:57;;;;;;;3.75;2.20;;;;;;;;;;6169430;28;20042;-87
2024/04/07 02:16:58;;;;;;;1.95;1.58;;;;;;;;;;6184378;28;20052;-87
2024/04/07 02:19:59;;;;;;;2.22;1.70;;;;;;;;;;6180454;28;20042;-87
2024/04/07 02:23:00;;;;;;;5.05;1.88;;;;;;;;;;6185832;28;20045;-88
2024/04/07 02:26:00;;;;;;;2.03;1.70;;;;;;;;;;6181589;28;20413;-86
2024/04/07 02:29:03;;;;;;;4.88;1.67;;;;;;;;;;6182277;28;20515;-87
2024/04/07 02:32:05;;;;;;;2.20;1.60;;;;;;;;;;6161964;28;20043;-87
2024/04/07 02:35:05;;;;;;;5.95;1.70;;;;;;;;;;6183345;28;20049;-87
2024/04/07 02:38:09;;;;;;;5.45;2.22;;;;;;;;;;6165944;28;20444;-87
2024/04/07 02:41:11;;;;;;;1.98;1.77;;;;;;;;;;6165459;28;20034;-87
2024/04/07 02:44:12;;;;;;;4.43;1.60;;;;;;;;;;6167086;28;20038;-88
2024/04/07 02:50:33;;;;;;;3.72;1.67;;;;;;;;;;6167237;28;20105;-87
2024/04/07 02:53:34;;;;;;;5.32;1.95;;;;;;;;;;6173468;28;20495;-87
2024/04/07 02:56:35;;;;;;;1.70;1.50;;;;;;;;;;6165398;28;20111;-86
2024/04/07 02:59:35;;;;;;;4.05;1.35;;;;;;;;;;6185644;28;20155;-87
2024/04/07 03:02:36;;;;;;;1.48;1.30;;;;;;;;;;6160364;28;20137;-87
2024/04/07 03:05:38;;;;;;;3.53;1.75;;;;;;;;;;6175545;28;20508;-88
2024/04/07 03:08:39;;;;;;;2.72;1.40;;;;;;;;;;6170336;28;20077;-87
2024/04/07 03:11:40;;;;;;;2.60;1.70;;;;;;;;;;6151606;28;20054;-87
2024/04/07 03:14:41;;;;;;;3.47;2.05;;;;;;;;;;6157879;28;20138;-87
2024/04/07 03:17:41;;;;;;;2.00;1.40;;;;;;;;;;6154394;28;20157;-87
2024/04/07 03:20:42;;;;;;;6.38;1.50;;;;;;;;;;6169672;28;20038;-88
2024/04/07 03:23:43;;;;;;;5.38;1.60;;;;;;;;;;6170547;28;20137;-87
2024/04/07 03:26:43;;;;;;;4.18;1.67;;;;;;;;;;6169199;28;20495;-87
2024/04/07 03:29:47;;;;;;;3.05;1.80;;;;;;;;;;6177161;28;20049;-88
2024/04/07 03:32:48;;;;;;;3.58;1.50;;;;;;;;;;6191490;28;20056;-88
2024/04/07 03:35:49;;;;;;;4.50;1.77;;;;;;;;;;6181710;28;20411;-88
2024/04/07 03:38:50;;;;;;;4.03;1.27;;;;;;;;;;6176569;28;20050;-87
2024/04/07 03:41:51;;;;;;;2.58;1.63;;;;;;;;;;6186004;28;20042;-88
2024/04/07 03:44:52;;;;;;;2.50;1.08;;;;;;;;;;6150006;28;20045;-87
2024/04/07 03:47:52;;;;;;;3.25;1.50;;;;;;;;;;6172591;28;20507;-88
2024/04/07 03:50:56;;;;;;;5.15;0.95;;;;;;;;;;6167458;28;20046;-86
2024/04/07 03:53:57;;;;;;;4.32;1.02;;;;;;;;;;6170744;28;20076;-87
2024/04/07 03:57:01;;;;;;;2.15;1.23;;;;;;;;;;6152675;28;20114;-87
2024/04/07 04:00:04;;;;;;;3.70;1.10;;;;;;;;;;6159361;28;20124;-87
2024/04/07 04:03:12;;;;;;;3.95;1.00;;;;;;;;;;6165474;28;20046;-87
2024/04/07 04:06:13;;;;;;;1.67;1.10;;;;;;;;;;6162938;28;20456;-88
2024/04/07 04:09:16;;;;;;;2.67;0.90;;;;;;;;;;6154383;28;20046;-87
2024/04/07 04:12:26;;;;;;;4.18;1.10;;;;;;;;;;6169590;28;20038;-88
2024/04/07 04:15:26;;;;;;;1.42;0.82;;;;;;;;;;6169380;28;20045;-90
2024/04/07 04:18:27;;;;;;;0.90;0.73;;;;;;;;;;6164197;28;20038;-88
2024/04/07 04:21:28;;;;;;;4.03;1.00;;;;;;;;;;6167705;28;20046;-87
2024/04/07 04:24:29;;;;;;;4.03;0.85;;;;;;;;;;6168441;28;20046;-88
2024/04/07 04:27:30;;;;;;;2.50;0.80;;;;;;;;;;6171332;28;20050;-87
2024/04/07 04:30:31;;;;;;;2.65;1.13;;;;;;;;;;6149155;28;20054;-92
2024/04/07 04:33:35;;;;;;;1.73;1.13;;;;;;;;;;6122002;28;20420;-91
2024/04/07 04:36:40;;;;;;;4.50;1.15;;;;;;;;;;6122641;28;20066;-91
2024/04/07 04:39:49;;;;;;;3.60;1.02;;;;;;;;;;6093143;28;20128;-90
2024/04/07 04:43:07;;;;;;;5.10;1.15;;;;;;;;;;6109914;28;20050;-91
2024/04/07 04:46:14;;;;;;;3.75;1.00;;;;;;;;;;6100599;28;20503;-91
2024/04/07 04:49:17;;;;;;;2.13;1.13;;;;;;;;;;6112478;28;20531;-92
2024/04/07 04:52:22;;;;;;;2.75;0.90;;;;;;;;;;6114734;28;20043;-92
2024/04/07 04:59:05;;;;;;;5.00;1.00;;;;;;;;;;6166187;28;20092;-91
2024/04/07 05:02:10;;;;;;;3.05;0.90;;;;;;;;;;6185432;28;20105;-91
2024/04/07 05:05:12;;;;;;;3.92;1.15;;;;;;;;;;6111054;28;20633;-92
2024/04/07 05:08:17;;;;;;;4.05;1.00;;;;;;;;;;6115031;28;20460;-91
2024/04/07 05:11:24;;;;;;;8.35;1.20;;;;;;;;;;6124725;28;20049;-89
2024/04/07 05:14:44;;;;;;;3.70;1.10;;;;;;;;;;6091515;28;20062;-89
2024/04/07 05:17:58;;;;;;;6.60;1.10;;;;;;;;;;6107672;28;20397;-89
2024/04/07 05:21:14;;;;;;;3.45;1.42;;;;;;;;;;6060729;28;20714;-90
2024/04/07 05:24:55;;;;;;;1.90;0.80;;;;;;;;;;6105541;28;20038;-90
2024/04/07 05:28:27;;;;;;;5.32;1.15;;;;;;;;;;6077802;28;20050;-90
2024/04/07 05:32:07;;;;;;;4.00;1.10;;;;;;;;;;6066263;28;20053;-90
2024/04/07 05:35:39;;;;;;;3.83;1.00;;;;;;;;;;6069956;28;20061;-89
2024/04/07 05:39:11;;;;;;;2.33;0.90;;;;;;;;;;6066002;28;20072;-90
2024/04/07 05:42:32;;;;;;;4.10;0.90;;;;;;;;;;6066055;28;20235;-90
2024/04/07 05:46:02;;;;;;;;;;;;;;;;;;;;;
2024/04/07 05:49:32;;;;;;;3.85;1.25;;;;;;;;;;6064382;28;20092;-90
2024/04/07 05:53:23;;;;;;;3.50;0.90;;;;;;;;;;6092421;28;20132;-89
2024/04/07 05:56:52;;;;;;;3.03;1.00;;;;;;;;;;6057981;28;20049;-90
2024/04/07 06:00:02;;;;;;;3.30;1.20;;;;;;;;;;6086472;28;20118;-89
2024/04/07 06:03:34;;;;;;;4.88;1.48;;;;;;;;;;6076461;28;20046;-89
2024/04/07 06:06:43;;;;;;;4.03;1.20;;;;;;;;;;6101198;28;20045;-89
2024/04/07 06:09:50;;;;;;;4.70;1.20;;;;;;;;;;6114701;28;20500;-89
2024/04/07 06:13:07;;;;;;;4.47;1.48;;;;;;;;;;6068233;28;20564;-89
2024/04/07 06:16:35;;;;;;;7.07;1.17;;;;;;;;;;6094564;28;20740;-89
2024/04/07 06:20:01;;;;;;;4.25;1.33;;;;;;;;;;6056803;28;20400;-90
2024/04/07 06:23:33;;;;;;;6.00;1.10;;;;;;;;;;6056422;28;21698;-90
2024/04/07 06:27:13;;;;;;;;;;;;;;;;;;;;;
2024/04/07 06:30:37;;;;;;;2.85;1.00;;;;;;;;;;6038017;28;20037;-90
2024/04/07 06:34:06;;;;;;;5.78;1.33;;;;;;;;;;6096688;28;20047;-91
2024/04/07 06:37:37;;;;;;;6.72;1.67;;;;;;;;;;6086788;28;20095;-90
2024/04/07 06:41:24;;;;;;;10.93;1.40;;;;;;;;;;6053984;28;20053;-90
2024/04/07 06:45:45;;;;;;;4.57;1.38;;;;;;;;;;6093842;28;20286;-90
2024/04/07 06:49:38;;;;;;;5.25;1.63;;;;;;;;;;6034965;28;20105;-89
2024/04/07 06:53:08;;;;;;;4.88;1.48;;;;;;;;;;6006237;28;20133;-90
2024/04/07 06:56:30;;;;;;;8.13;1.92;;;;;;;;;;6033537;28;20129;-90
2024/04/07 06:59:55;;;;;;;4.85;1.67;;;;;;;;;;6072945;28;20047;-91
2024/04/07 07:03:07;;;;;;;4.90;1.38;;;;;;;;;;6033257;28;20062;-90
2024/04/07 07:06:14;;;;;;;5.88;1.30;;;;;;;;;;6015524;28;21511;-89
2024/04/07 07:09:52;;;;;;;5.53;1.33;;;;;;;;;;6029357;28;20047;-91
2024/04/07 07:13:36;;;;;;;4.47;1.80;;;;;;;;;;6039785;28;20046;-90
2024/04/07 07:17:30;;;;;;;4.90;1.30;;;;;;;;;;6087717;28;20046;-90
2024/04/07 07:21:14;;;;;;;6.50;1.45;;;;;;;;;;6054065;28;20051;-91
2024/04/07 07:25:05;;;;;;;7.00;1.88;;;;;;;;;;6024180;28;20130;-90
2024/04/07 07:28:56;;;;;;;5.57;1.42;;;;;;;;;;6037619;28;20550;-90
2024/04/07 07:32:41;;;;;;;4.80;1.25;;;;;;;;;;6048880;28;20042;-91
2024/04/07 07:36:28;;;;;;;3.30;1.13;;;;;;;;;;5972952;29;20055;-90
2024/04/07 07:40:16;;;;;;;2.40;1.30;;;;;;;;;;6022366;28;20044;-90
2024/04/07 07:43:31;;;;;;;4.07;1.30;;;;;;;;;;6054837;28;20046;-92
2024/04/07 07:46:46;;;;;;;6.75;1.48;;;;;;;;;;6081494;28;20062;-91
2024/04/07 07:49:57;;;;;;;4.60;1.20;;;;;;;;;;6027250;28;20050;-91
2024/04/07 07:53:15;;;;;;;4.95;1.38;;;;;;;;;;6075920;28;20038;-92
2024/04/07 07:56:21;;;;;;;5.68;1.20;;;;;;;;;;6088444;28;20573;-89
2024/04/07 07:59:22;;;;;;;4.07;1.20;;;;;;;;;;6152406;28;20046;-91
2024/04/07 08:02:25;;;;;;;3.47;1.27;;;;;;;;;;6175942;28;20053;-91
2024/04/07 08:05:26;;;;;;;2.88;1.20;;;;;;;;;;6175789;28;20085;-90
2024/04/07 08:08:27;;;;;;;3.92;1.20;;;;;;;;;;6155692;28;20096;-91
2024/04/07 08:11:28;;;;;;;4.97;1.50;;;;;;;;;;6166712;28;20137;-90
2024/04/07 08:14:29;;;;;;;7.28;1.52;;;;;;;;;;6138624;28;20526;-90
2024/04/07 08:17:33;;;;;;;3.95;1.15;;;;;;;;;;6143206;28;20042;-91
2024/04/07 08:20:35;;;;;;;5.22;1.75;;;;;;;;;;6142078;28;20422;-90
2024/04/07 08:23:36;;;;;;;3.42;1.17;;;;;;;;;;6165000;28;20063;-89
2024/04/07 08:26:38;;;;;;;4.80;1.50;;;;;;;;;;6115964;28;20046;-90
2024/04/07 08:29:39;;;;;;;4.10;1.35;;;;;;;;;;6123672;28;20129;-90
2024/04/07 08:32:41;;;;;;;3.08;1.02;;;;;;;;;;6174974;28;20057;-92
2024/04/07 08:35:42;;;;;;;2.33;0.88;;;;;;;;;;6109946;28;20516;-90
2024/04/07 08:38:43;;;;;;;3.15;1.30;;;;;;;;;;6157811;28;20138;-89
2024/04/07 08:41:46;;;;;;;3.13;1.27;;;;;;;;;;6151299;28;20050;-89
2024/04/07 08:44:47;;;;;;;;;;;;;;;;;;6158930;28;20042;-89
2024/04/07 08:47:49;;;;;;;3.75;1.20;;;;;;;;;;6174997;28;19928;-88
2024/04/07 08:50:53;;;;;;;6.43;1.30;;;;;;;;;;6155200;28;20137;-89
2024/04/07 08:53:57;;;;;;;4.95;1.27;;;;;;;;;;6167404;28;20069;-89
2024/04/07 08:57:09;;;;;;;5.80;1.40;;;;;;;;;;6181573;28;20122;-89
2024/04/07 09:00:15;;;;;;;4.45;1.30;;;;;;;;;;6187922;28;20046;-89
2024/04/07 09:03:17;;;;;;;8.50;1.55;;;;;;;;;;6160514;28;20049;-89
2024/04/07 09:06:22;;;;;;;4.72;1.10;;;;;;;;;;6149426;28;20050;-89
2024/04/07 09:09:25;;;;;;;3.17;1.35;;;;;;;;;;6163548;28;20258;-88
2024/04/07 09:12:33;;;;;;;5.18;1.13;;;;;;;;;;6142306;28;20050;-89
2024/04/07 09:16:00;;;;;;;3.83;1.10;;;;;;;;;;6080767;28;20108;-89
2024/04/07 09:19:06;;;;;;;4.13;1.20;;;;;;;;;;6111838;28;20046;-88
2024/04/07 09:22:08;;;;;;;2.92;1.02;;;;;;;;;;6162566;28;20077;-92
2024/04/07 09:25:09;;;;;;;4.07;1.00;;;;;;;;;;6152791;28;20061;-90
2024/04/07 09:28:13;;;;;;;3.33;1.20;;;;;;;;;;6149991;28;20149;-91
2024/04/07 09:31:25;;;;;;;2.20;0.82;;;;;;;;;;6173096;28;20053;-91
2024/04/07 09:34:28;;;;;;;3.50;0.95;;;;;;;;;;6199990;28;20042;-89
2024/04/07 09:37:29;;;;;;;2.92;0.98;;;;;;;;;;6157176;28;20482;-89
2024/04/07 09:40:31;;;;;;;3.50;0.90;;;;;;;;;;6179216;28;20100;-90
2024/04/07 09:43:34;;;;;;;2.65;0.90;;;;;;;;;;6133576;28;20074;-90
2024/04/07 09:46:37;;;;;;;;;;;;;;;;;;6142972;28;20383;-90
2024/04/07 09:49:39;;;;;;;3.78;0.82;;;;;;;;;;6161287;28;19984;-91
2024/04/07 09:52:50;;;;;;;1.80;0.50;;;;;;;;;;6138635;28;20072;-90
2024/04/07 09:55:55;;;;;;;2.38;0.80;;;;;;;;;;6155180;28;20046;-92
2024/04/07 09:58:57;;;;;;;2.92;0.90;;;;;;;;;;6194790;28;20062;-91
2024/04/07 10:01:58;;;;;;;6.22;0.80;;;;;;;;;;6192480;28;20046;-90
2024/04/07 10:04:59;;;;;;;2.47;0.85;;;;;;;;;;6166031;28;20112;-89
2024/04/07 10:08:00;;;;;;;4.97;1.00;;;;;;;;;;6162028;28;20042;-89
2024/04/07 10:11:01;;;;;;;3.42;0.70;;;;;;;;;;6167015;28;20050;-90
2024/04/07 10:14:13;;;;;;;2.45;0.60;;;;;;;;;;6160394;28;20042;-90
2024/04/07 10:17:13;;;;;;;3.53;0.90;;;;;;;;;;6163655;28;20046;-89
2024/04/07 10:20:14;;;;;;;2.28;0.70;;;;;;;;;;6165324;28;20270;-90
2024/04/07 10:23:16;;;;;;;4.45;1.17;;;;;;;;;;6177420;28;20417;-89
2024/04/07 10:26:18;;;;;;;3.22;1.08;;;;;;;;;;6152267;28;20086;-91
2024/04/07 10:29:19;;;;;;;3.13;0.90;;;;;;;;;;6160403;28;20070;-89
2024/04/07 10:32:27;;;;;;;3.17;1.20;;;;;;;;;;6161273;28;20046;-89
2024/04/07 10:35:27;;;;;;;2.70;0.80;;;;;;;;;;6155132;28;20062;-89
2024/04/07 10:38:50;;;;;;;3.42;0.80;;;;;;;;;;6164482;28;20054;-88
2024/04/07 10:41:54;;;;;;;1.83;0.80;;;;;;;;;;6166257;28;20128;-89
2024/04/07 10:44:55;;;;;;;3.53;0.80;;;;;;;;;;6169453;28;20065;-89
2024/04/07 10:47:56;;;;;;;3.33;1.00;;;;;;;;;;6164808;28;20050;-89
2024/04/07 10:51:02;;;;;;;3.70;0.80;;;;;;;;;;6181889;28;20166;-90
2024/04/07 10:54:05;;;;;;;3.63;1.05;;;;;;;;;;6191430;28;20140;-88
2024/04/07 10:57:10;;;;;;;1.52;0.60;;;;;;;;;;6176281;28;20050;-88
2024/04/07 11:00:11;;;;;;;2.38;1.13;;;;;;;;;;6178725;28;20061;-88
2024/04/07 11:03:13;;;;;;;2.23;0.70;;;;;;;;;;6181927;28;21504;-90
2024/04/07 11:06:14;;;;;;;2.85;0.98;;;;;;;;;;6161426;28;20072;-90
2024/04/07 11:09:16;;;;;;;1.42;0.63;;;;;;;;;;6144740;28;20053;-89
2024/04/07 11:12:17;;;;;;;3.00;0.90;;;;;;;;;;6179964;28;20042;-85
2024/04/07 11:15:20;;;;;;;2.22;0.80;;;;;;;;;;6162567;28;20431;-83
2024/04/07 11:18:21;;;;;;;2.40;0.87;;;;;;;;;;6161968;28;20053;-83
2024/04/07 11:21:24;;;;;;;1.27;0.77;;;;;;;;;;6161032;28;20573;-84
2024/04/07 11:24:25;;;;;;;1.38;0.70;;;;;;;;;;6141597;28;20062;-83
2024/04/07 11:27:26;;;;;;;3.38;0.85;;;;;;;;;;6151278;28;20050;-82
2024/04/07 11:30:35;;;;;;;3.85;0.80;;;;;;;;;;6176470;28;20045;-84
2024/04/07 11:33:36;;;;;;;2.65;0.73;;;;;;;;;;6160914;28;20093;-83
2024/04/07 11:36:41;;;;;;;4.18;1.10;;;;;;;;;;6163703;28;20046;-91
2024/04/07 11:39:49;;;;;;;3.78;1.02;;;;;;;;;;6180538;28;20128;-88
2024/04/07 11:42:50;;;;;;;2.65;0.65;;;;;;;;;;6165630;28;20042;-88
2024/04/07 11:45:50;;;;;;;4.00;1.08;;;;;;;;;;6169118;28;20589;-87
2024/04/07 11:48:51;;;;;;;1.98;0.75;;;;;;;;;;6177300;28;20100;-88
2024/04/07 11:51:52;;;;;;;3.22;0.90;;;;;;;;;;6163673;28;20568;-87
2024/04/07 11:54:53;;;;;;;2.50;0.85;;;;;;;;;;6182872;28;20046;-87
2024/04/07 11:57:54;;;;;;;1.08;0.60;;;;;;;;;;6166209;28;20076;-88
2024/04/07 12:00:56;;;;;;;4.13;0.90;;;;;;;;;;6165985;28;20097;-88
2024/04/07 12:03:58;;;;;;;3.90;0.73;;;;;;;;;;6168435;28;20050;-87
2024/04/07 12:06:59;;;;;;;3.53;1.00;;;;;;;;;;6179862;28;20042;-88
2024/04/07 12:10:00;;;;;;;5.88;0.93;;;;;;;;;;6184686;28;20042;-89
2024/04/07 12:13:01;;;;;;;2.00;0.82;;;;;;;;;;6168088;28;20080;-87
2024/04/07 12:16:02;;;;;;;2.53;0.70;;;;;;;;;;6170781;28;20042;-91
2024/04/07 12:19:03;;;;;;;5.40;1.00;;;;;;;;;;6161404;28;20045;-91
2024/04/07 12:22:08;;;;;;;3.15;1.08;;;;;;;;;;6172954;28;20515;-91
2024/04/07 12:25:09;;;;;;;3.17;1.10;;;;;;;;;;6169916;28;20122;-91
2024/04/07 12:28:10;;;;;;;3.40;0.70;;;;;;;;;;6174240;28;20042;-92
2024/04/07 12:31:11;;;;;;;1.77;1.00;;;;;;;;;;6191954;28;20050;-92
2024/04/07 12:34:12;;;;;;;4.78;0.88;;;;;;;;;;6181172;28;20070;-92
2024/04/07 12:37:13;;;;;;;4.38;0.80;;;;;;;;;;6164348;28;20052;-92
2024/04/07 12:40:15;;;;;;;4.15;1.10;;;;;;;;;;6168508;28;20053;-91
2024/04/07 12:43:15;;;;;;;4.45;0.93;;;;;;;;;;6169511;28;20487;-92
2024/04/07 12:46:16;;;;;;;4.32;0.82;;;;;;;;;;6156466;28;20046;-91
2024/04/07 12:49:21;;;;;;;6.18;0.95;;;;;;;;;;6151983;28;20054;-91
2024/04/07 12:52:22;;;;;;;2.58;0.90;;;;;;;;;;6163855;28;20045;-91
2024/04/07 12:55:23;;;;;;;5.93;1.10;;;;;;;;;;6169159;28;20050;-92
2024/04/07 12:58:24;;;;;;;3.38;1.05;;;;;;;;;;6151402;28;20582;-91
2024/04/07 13:01:25;;;;;;;3.78;0.85;;;;;;;;;;6163920;28;20134;-92
2024/04/07 13:04:26;;;;;;;5.90;1.00;;;;;;;;;;6166262;28;20053;-91
2024/04/07 13:07:27;;;;;;;4.68;1.15;;;;;;;;;;6189352;28;20849;-91
2024/04/07 13:10:28;;;;;;;3.95;1.20;;;;;;;;;;6163662;28;20254;-90
2024/04/07 13:13:29;;;;;;;4.90;1.02;;;;;;;;;;6146367;28;20053;-91
2024/04/07 13:16:30;;;;;;;5.45;1.00;;;;;;;;;;6167534;28;20113;-90
2024/04/07 13:19:31;;;;;;;5.28;1.00;;;;;;;;;;6187850;28;20050;-91
2024/04/07 13:22:32;;;;;;;2.78;0.80;;;;;;;;;;6172549;28;20470;-90
2024/04/07 13:25:33;;;;;;;4.35;0.95;;;;;;;;;;6157413;28;20108;-90
2024/04/07 13:28:34;;;;;;;3.20;1.15;;;;;;;;;;6178402;28;20124;-89
2024/04/07 13:31:34;;;;;;;10.50;1.35;;;;;;;;;;6195320;28;20058;-89
2024/04/07 13:34:35;;;;;;;5.57;1.00;;;;;;;;;;6188195;28;20293;-89
2024/04/07 13:37:37;;;;;;;4.35;1.30;;;;;;;;;;6170780;28;20100;-89
2024/04/07 13:40:38;;;;;;;3.80;1.35;;;;;;;;;;6175519;28;20074;-89
2024/04/07 13:43:38;;;;;;;3.53;1.27;;;;;;;;;;6163325;28;20499;-89
2024/04/07 13:46:39;;;;;;;5.15;1.48;;;;;;;;;;6176919;28;20409;-89
2024/04/07 13:49:40;;;;;;;5.18;1.30;;;;;;;;;;6167850;28;20399;-89
2024/04/07 13:52:42;;;;;;;5.78;1.20;;;;;;;;;;6166784;28;20097;-90
2024/04/07 13:55:42;;;;;;;3.93;1.07;;;;;;;;;;6157856;28;20049;-89
2024/04/07 13:58:44;;;;;;;7.32;1.20;;;;;;;;;;6156083;28;20511;-89
2024/04/07 14:01:45;;;;;;;4.78;1.30;;;;;;;;;;6158508;28;20073;-91
2024/04/07 14:04:46;;;;;;;6.38;1.33;;;;;;;;;;6163811;28;20046;-91
2024/04/07 14:07:47;;;;;;;4.45;1.40;;;;;;;;;;6165826;28;20610;-90
2024/04/07 14:10:48;;;;;;;5.07;1.58;;;;;;;;;;6166150;28;20089;-89
2024/04/07 14:13:49;;;;;;;4.00;1.30;;;;;;;;;;6194026;28;20050;-89
2024/04/07 14:16:50;;;;;;;5.93;1.33;;;;;;;;;;6171819;28;20476;-88
2024/04/07 14:19:51;;;;;;;6.60;1.50;;;;;;;;;;6164396;28;20530;-88
2024/04/07 14:22:51;;;;;;;6.07;1.63;;;;;;;;;;6180353;28;20138;-89
2024/04/07 14:25:52;;;;;;;5.05;1.20;;;;;;;;;;6152421;28;20053;-86
2024/04/07 14:28:53;;;;;;;4.35;1.20;;;;;;;;;;6180733;28;20054;-87
2024/04/07 14:31:54;;;;;;;6.22;1.45;;;;;;;;;;6155509;28;20049;-89
2024/04/07 14:34:55;;;;;;;6.95;1.67;;;;;;;;;;6153163;28;20046;-88
2024/04/07 14:37:56;;;;;;;5.40;1.20;;;;;;;;;;6158817;28;20097;-88
2024/04/07 14:40:59;;;;;;;5.72;1.20;;;;;;;;;;6157514;28;20082;-87
2024/04/07 14:44:01;;;;;;;5.70;1.10;;;;;;;;;;6178894;28;20038;-86
2024/04/07 14:47:02;;;;;;;5.13;1.33;;;;;;;;;;6176749;28;20050;-86
2024/04/07 14:50:03;;;;;;;5.45;1.05;;;;;;;;;;6168064;28;20046;-89
2024/04/07 14:53:06;;;;;;;3.65;1.17;;;;;;;;;;6163691;28;20046;-89
2024/04/07 14:56:08;;;;;;;5.53;1.23;;;;;;;;;;6151452;28;20147;-87
2024/04/07 14:59:09;;;;;;;6.68;1.52;;;;;;;;;;6186128;28;20042;-86
2024/04/07 15:02:09;;;;;;;6.75;1.77;;;;;;;;;;6160370;28;20520;-85
2024/04/07 15:05:10;;;;;;;6.75;1.20;;;;;;;;;;6163646;28;20531;-87
2024/04/07 15:08:14;;;;;;;7.72;1.42;;;;;;;;;;6165245;28;20574;-87
2024/04/07 15:11:20;;;;;;;7.72;1.33;;;;;;;;;;6164055;28;20491;-84
2024/04/07 15:14:23;;;;;;;6.22;1.42;;;;;;;;;;6172659;28;20069;-85
2024/04/07 15:17:24;;;;;;;4.70;1.70;;;;;;;;;;6157484;28;20056;-87
2024/04/07 15:20:24;;;;;;;4.65;1.17;;;;;;;;;;6169452;28;20504;-86
2024/04/07 15:23:26;;;;;;;4.10;1.20;;;;;;;;;;6167574;28;20054;-89
2024/04/07 15:26:28;;;;;;;5.95;1.50;;;;;;;;;;6194576;28;20045;-89
2024/04/07 15:29:28;;;;;;;3.28;1.20;;;;;;;;;;6183319;28;20042;-89
2024/04/07 15:32:29;;;;;;;2.20;1.38;;;;;;;;;;6176919;28;20042;-88
2024/04/07 15:35:31;;;;;;;4.03;1.20;;;;;;;;;;6159193;28;20053;-87
2024/04/07 15:38:33;;;;;;;3.53;1.27;;;;;;;;;;6147858;28;20095;-90
2024/04/07 15:41:34;;;;;;;5.37;1.20;;;;;;;;;;6134350;28;20137;-87
2024/04/07 15:44:35;;;;;;;4.95;1.48;;;;;;;;;;6153636;28;20046;-86
2024/04/07 15:47:36;;;;;;;3.65;1.50;;;;;;;;;;6147823;28;20052;-87
2024/04/07 15:50:39;;;;;;;4.38;1.48;;;;;;;;;;6151612;28;20038;-87
2024/04/07 15:53:39;;;;;;;6.85;2.03;;;;;;;;;;6167022;28;20069;-83
2024/04/07 15:56:40;;;;;;;4.50;1.40;;;;;;;;;;6190271;28;20535;-83
2024/04/07 15:59:41;;;;;;;6.28;1.23;;;;;;;;;;6176069;28;20054;-88
2024/04/07 16:02:42;;;;;;;5.22;1.30;;;;;;;;;;6179068;28;20061;-87
2024/04/07 16:05:43;;;;;;;2.90;1.13;;;;;;;;;;6189891;28;20050;-85
2024/04/07 16:08:43;;;;;;;6.88;1.38;;;;;;;;;;6172885;28;20045;-89
2024/04/07 16:11:44;;;;;;;4.57;1.40;;;;;;;;;;6174420;28;20050;-85
2024/04/07 16:14:45;;;;;;;3.72;1.10;;;;;;;;;;6156560;28;20185;-87
2024/04/07 16:17:46;;;;;;;2.92;1.23;;;;;;;;;;6175813;28;20106;-88
2024/04/07 16:20:46;;;;;;;5.63;1.33;;;;;;;;;;6186433;28;20407;-83
2024/04/07 16:23:47;;;;;;;7.95;1.65;;;;;;;;;;6170822;28;20045;-85
2024/04/07 16:26:48;;;;;;;7.93;1.70;;;;;;;;;;6197465;28;20400;-85
2024/04/07 16:29:51;;;;;;;4.05;1.20;;;;;;;;;;6173717;28;20054;-89
2024/04/07 16:32:52;;;;;;;7.10;1.20;;;;;;;;;;6159467;28;20128;-87
2024/04/07 16:35:54;;;;;;;6.90;1.33;;;;;;;;;;6176648;28;20438;-84
2024/04/07 16:38:56;;;;;;;4.95;1.50;;;;;;;;;;6182642;28;20050;-84
2024/04/07 16:41:57;;;;;;;4.13;1.17;;;;;;;;;;6156756;28;20047;-86
2024/04/07 16:44:57;;;;;;;5.15;1.17;;;;;;;;;;6167469;28;20081;-87
2024/04/07 16:47:59;;;;;;;4.43;1.52;;;;;;;;;;6167381;28;20668;-85
2024/04/07 16:51:01;;;;;;;6.72;1.58;;;;;;;;;;6175153;28;20056;-85
2024/04/07 16:54:01;;;;;;;4.97;2.20;;;;;;;;;;6182519;28;20050;-86
2024/04/07 16:57:03;;;;;;;3.83;1.55;;;;;;;;;;6171237;28;20046;-85
2024/04/07 17:00:04;;;;;;;4.20;1.48;;;;;;;;;;6178602;28;20054;-87
2024/04/07 17:03:05;;;;;;;4.50;1.63;;;;;;;;;;6184554;28;20047;-87
2024/04/07 17:06:05;;;;;;;3.40;1.30;;;;;;;;;;6174275;28;20050;-87
2024/04/07 17:09:06;;;;;;;2.60;1.30;;;;;;;;;;6170504;28;20373;-88
2024/04/07 17:12:07;;;;;;;3.90;1.60;;;;;;;;;;6157469;28;20050;-87
2024/04/07 17:15:09;;;;;;;6.72;1.45;;;;;;;;;;6168986;28;20387;-88
2024/04/07 17:18:10;;;;;;;5.50;1.50;;;;;;;;;;6160823;28;20045;-87
2024/04/07 17:21:14;;;;;;;5.90;1.45;;;;;;;;;;6170251;28;20432;-89
2024/04/07 17:24:14;;;;;;;5.05;1.33;;;;;;;;;;6152308;28;20046;-89
2024/04/07 17:27:19;;;;;;;6.10;1.30;;;;;;;;;;6174185;28;20054;-88
2024/04/07 17:30:20;;;;;;;3.90;1.35;;;;;;;;;;6156665;28;20439;-87
2024/04/07 17:33:21;;;;;;;5.82;1.20;;;;;;;;;;6158237;28;20100;-88
2024/04/07 17:36:24;;;;;;;5.22;1.70;;;;;;;;;;6170182;28;20049;-88
2024/04/07 17:39:25;;;;;;;6.78;1.67;;;;;;;;;;6173599;28;20053;-89
2024/04/07 17:42:26;;;;;;;4.90;1.58;;;;;;;;;;6161116;28;20050;-88
2024/04/07 17:45:27;;;;;;;2.92;1.10;;;;;;;;;;6163832;28;20051;-89
2024/04/07 17:48:28;;;;;;;4.55;1.10;;;;;;;;;;6168323;28;20038;-88
2024/04/07 17:51:28;;;;;;;7.80;1.35;;;;;;;;;;6170475;28;20480;-87
2024/04/07 17:54:31;;;;;;;4.03;1.30;;;;;;;;;;6158483;28;20046;-88
2024/04/07 17:57:36;;;;;;;5.90;1.60;;;;;;;;;;6157117;28;20049;-88
2024/04/07 18:00:37;;;;;;;5.90;1.40;;;;;;;;;;6167772;28;20073;-88
2024/04/07 18:03:39;;;;;;;6.13;1.73;;;;;;;;;;6171296;28;20464;-87
2024/04/07 18:06:40;;;;;;;4.50;1.02;;;;;;;;;;6148680;28;20067;-87
2024/04/07 18:09:41;;;;;;;9.27;1.40;;;;;;;;;;6168429;28;20047;-86
2024/04/07 18:12:41;;;;;;;4.10;1.80;;;;;;;;;;6166859;28;20423;-87
2024/04/07 18:15:42;;;;;;;6.13;1.58;;;;;;;;;;6162229;28;20038;-88
2024/04/07 18:18:43;;;;;;;5.60;1.02;;;;;;;;;;6151584;28;20046;-87
2024/04/07 18:21:44;;;;;;;5.45;1.50;;;;;;;;;;6166934;28;20050;-87
2024/04/07 18:24:45;;;;;;;4.72;1.20;;;;;;;;;;6154120;28;20045;-86
2024/04/07 18:27:46;;;;;;;3.65;1.25;;;;;;;;;;6179693;28;20038;-87
2024/04/07 18:30:47;;;;;;;5.40;1.80;;;;;;;;;;6196396;28;20056;-87
2024/04/07 18:33:49;;;;;;;5.60;2.25;;;;;;;;;;6210934;28;20034;-88
2024/04/07 18:36:50;;;;;;;5.13;2.63;;;;;;;;;;6178779;28;20054;-88
2024/04/07 18:39:54;;;;;;;7.78;2.17;;;;;;;;;;6164871;28;20042;-87
2024/04/07 18:42:56;;;;;;;6.05;1.67;;;;;;;;;;6168399;28;20069;-88